Asse, Belgium
Current Conditions -  °F | °C
As of 12:50 AM on Saturday 22 Nov 2014 (Local Time) from EBBR Reporting Station
Clear Clear  
Wind Chill: 43°   Ceiling: Unl
Heat Index: 43°   Visibility: 6mi
Dew Point: 41°   Wind: 1mph
Humidity: 93%   Direction: NA
Pressure: 30.03"   Gusts: NA
Location:  50.91°N, 4.2°E
Report Text: EBBR 212350Z VRB01KT 9000 NSC 06/05 Q1017 NOSIG
Loading
Personal Weather Stations






























Interactive Weather Map New forecast layout! Learn more

10-Day Weather Forecast

Advertisements
Track Severe Weather on mobile